createdAt,value
2023-03-26T00:01:46.850Z,1.80
2023-03-26T00:04:19.604Z,1.90
2023-03-26T00:06:48.948Z,1.45
2023-03-26T00:09:17.243Z,1.85
2023-03-26T00:11:46.255Z,1.70
2023-03-26T00:14:17.561Z,2.58
2023-03-26T00:16:47.613Z,2.50
2023-03-26T00:19:16.962Z,2.60
2023-03-26T00:21:44.824Z,1.60
2023-03-26T00:24:16.455Z,2.03
2023-03-26T00:26:44.730Z,1.98
2023-03-26T00:29:13.937Z,1.90
2023-03-26T00:31:46.596Z,2.25
2023-03-26T00:34:15.814Z,2.90
2023-03-26T00:36:47.092Z,2.20
2023-03-26T00:39:15.308Z,2.17
2023-03-26T00:41:43.712Z,1.92
2023-03-26T00:44:12.067Z,1.30
2023-03-26T00:46:40.370Z,1.50
2023-03-26T00:49:11.242Z,1.40
2023-03-26T00:51:39.387Z,1.35
2023-03-26T00:54:09.369Z,1.90
2023-03-26T00:56:38.746Z,1.90
2023-03-26T00:59:06.854Z,2.00
2023-03-26T01:01:37.531Z,1.90
2023-03-26T01:04:27.994Z,1.42
2023-03-26T01:06:58.579Z,2.28
2023-03-26T01:09:33.008Z,2.28
2023-03-26T01:12:02.008Z,1.80
2023-03-26T01:14:30.059Z,2.03
2023-03-26T01:16:58.835Z,1.70
2023-03-26T01:19:29.320Z,2.22
2023-03-26T01:21:57.461Z,2.35
2023-03-26T01:24:26.653Z,2.38
2023-03-26T01:27:13.456Z,4.28
2023-03-26T01:29:44.190Z,3.60
2023-03-26T01:32:19.596Z,3.30
2023-03-26T01:34:52.295Z,2.63
2023-03-26T01:37:23.674Z,2.40
2023-03-26T01:39:57.365Z,2.50
2023-03-26T01:42:29.058Z,2.22
2023-03-26T01:44:59.429Z,1.92
2023-03-26T01:47:27.321Z,1.60
2023-03-26T01:49:55.369Z,1.55
2023-03-26T01:52:26.126Z,2.22
2023-03-26T01:54:55.587Z,1.92
2023-03-26T01:57:27.760Z,1.95
2023-03-26T02:00:04.643Z,1.92
2023-03-26T02:02:46.705Z,1.92
2023-03-26T02:05:18.372Z,1.30
2023-03-26T02:07:50.953Z,1.50
2023-03-26T02:10:22.100Z,1.70
2023-03-26T02:12:50.080Z,1.38
2023-03-26T02:15:17.948Z,1.40
2023-03-26T02:17:45.716Z,1.50
2023-03-26T02:20:14.993Z,1.65
2023-03-26T02:22:45.943Z,1.60
2023-03-26T02:25:17.115Z,1.85
2023-03-26T02:27:47.207Z,1.58
2023-03-26T02:30:16.332Z,1.60
2023-03-26T02:32:47.221Z,1.63
2023-03-26T02:35:15.247Z,1.80
2023-03-26T02:37:46.906Z,1.42
2023-03-26T02:40:18.255Z,1.67
2023-03-26T02:42:48.421Z,2.08
2023-03-26T02:45:16.514Z,2.03
2023-03-26T02:48:07.983Z,1.80
2023-03-26T02:50:50.110Z,2.38
2023-03-26T02:53:33.357Z,1.70
2023-03-26T02:56:27.049Z,1.73
2023-03-26T02:59:19.202Z,1.73
2023-03-26T03:01:52.238Z,2.00
2023-03-26T03:04:21.928Z,1.90
2023-03-26T03:06:57.577Z,1.60
2023-03-26T03:09:26.971Z,1.60
2023-03-26T03:15:01.813Z,1.80
2023-03-26T03:17:29.621Z,1.80
2023-03-26T03:19:57.509Z,2.08
2023-03-26T03:22:25.540Z,1.88
2023-03-26T03:24:57.725Z,1.52
2023-03-26T03:27:26.124Z,2.33
2023-03-26T03:30:10.851Z,2.28
2023-03-26T03:32:47.255Z,1.50
2023-03-26T03:35:19.608Z,1.77
2023-03-26T03:37:50.748Z,2.67
2023-03-26T03:40:19.680Z,1.60
2023-03-26T03:42:47.877Z,2.38
2023-03-26T03:45:24.328Z,1.83
2023-03-26T03:48:15.192Z,1.63
2023-03-26T03:50:46.567Z,2.08
2023-03-26T03:53:41.081Z,1.95
2023-03-26T03:56:11.036Z,1.77
2023-03-26T03:59:04.824Z,2.15
2023-03-26T04:01:36.950Z,2.60
2023-03-26T04:04:11.433Z,2.45
2023-03-26T04:07:02.211Z,2.00
2023-03-26T04:09:37.276Z,2.22
2023-03-26T04:12:13.560Z,1.77
2023-03-26T04:14:54.829Z,2.42
2023-03-26T04:17:24.285Z,1.77
2023-03-26T04:19:56.093Z,2.00
2023-03-26T04:22:34.632Z,1.85
2023-03-26T04:25:05.309Z,1.73
2023-03-26T04:27:44.164Z,1.58
2023-03-26T04:30:20.548Z,1.48
2023-03-26T04:32:58.668Z,1.83
2023-03-26T04:35:30.382Z,1.90
2023-03-26T04:37:58.762Z,1.92
2023-03-26T04:40:31.686Z,1.85
2023-03-26T04:42:59.977Z,2.15
2023-03-26T04:45:47.996Z,1.58
2023-03-26T04:48:18.536Z,1.77
2023-03-26T04:50:47.552Z,1.90
2023-03-26T04:53:17.163Z,1.80
2023-03-26T04:55:53.618Z,1.98
2023-03-26T04:58:41.205Z,1.80
2023-03-26T05:01:11.191Z,1.92
2023-03-26T05:03:45.958Z,1.45
2023-03-26T05:06:16.287Z,2.00
2023-03-26T05:08:44.117Z,1.83
2023-03-26T05:11:19.854Z,1.77
2023-03-26T05:13:47.983Z,1.80
2023-03-26T05:16:15.946Z,1.90
2023-03-26T05:18:56.138Z,1.98
2023-03-26T05:21:24.860Z,1.60
2023-03-26T05:23:52.812Z,1.50
2023-03-26T05:26:22.331Z,1.67
2023-03-26T05:28:50.352Z,1.67
2023-03-26T05:31:33.042Z,1.63
2023-03-26T05:34:03.862Z,1.88
2023-03-26T05:36:31.673Z,1.80
2023-03-26T05:39:29.880Z,2.65
2023-03-26T05:42:17.723Z,2.05
2023-03-26T05:45:22.377Z,1.70
2023-03-26T05:47:51.323Z,1.70
2023-03-26T05:50:22.012Z,2.17
2023-03-26T05:52:50.996Z,2.53
2023-03-26T05:55:24.544Z,2.25
2023-03-26T05:58:11.098Z,2.03
2023-03-26T06:01:16.940Z,2.33
2023-03-26T06:04:05.174Z,2.20
2023-03-26T06:06:40.022Z,2.60
2023-03-26T06:09:09.668Z,2.03
2023-03-26T06:11:37.541Z,2.33
2023-03-26T06:14:06.619Z,2.10
2023-03-26T06:16:36.160Z,1.88
2023-03-26T06:19:21.462Z,1.77
2023-03-26T06:21:53.685Z,2.15
2023-03-26T06:24:24.612Z,2.15
2023-03-26T06:27:18.627Z,2.60
2023-03-26T06:30:13.209Z,2.15
2023-03-26T06:33:10.282Z,2.58
2023-03-26T06:35:46.971Z,2.08
2023-03-26T06:38:18.389Z,2.97
2023-03-26T06:40:46.349Z,5.05
2023-03-26T06:43:26.327Z,4.60
2023-03-26T06:46:06.844Z,7.53
2023-03-26T06:48:56.906Z,3.72
2023-03-26T06:51:50.905Z,3.67
2023-03-26T06:54:40.756Z,3.53
2023-03-26T06:57:35.069Z,3.10
2023-03-26T07:00:13.659Z,2.83
2023-03-26T07:03:00.336Z,2.45
2023-03-26T07:05:47.857Z,5.00
2023-03-26T07:08:37.214Z,3.95
2023-03-26T07:11:32.414Z,4.43
2023-03-26T07:14:38.339Z,5.00
2023-03-26T07:17:18.521Z,3.28
2023-03-26T07:20:09.878Z,3.75
2023-03-26T07:22:38.842Z,8.30
2023-03-26T07:25:39.184Z,5.60
2023-03-26T07:28:34.285Z,5.30
2023-03-26T07:31:29.190Z,3.42
2023-03-26T07:34:32.116Z,5.25
2023-03-26T07:37:28.410Z,3.97
2023-03-26T07:40:41.671Z,2.80
2023-03-26T07:43:48.927Z,2.42
2023-03-26T07:46:49.298Z,2.85
2023-03-26T07:49:43.387Z,2.85
2023-03-26T07:52:32.965Z,2.28
2023-03-26T07:55:20.730Z,6.38
2023-03-26T07:58:15.648Z,3.70
2023-03-26T08:01:07.436Z,2.95
2023-03-26T08:03:46.276Z,3.30
2023-03-26T08:06:45.559Z,3.45
2023-03-26T08:09:36.490Z,3.15
2023-03-26T08:12:44.151Z,4.40
2023-03-26T08:15:16.865Z,3.83
2023-03-26T08:17:50.274Z,3.08
2023-03-26T08:20:26.179Z,2.65
2023-03-26T08:22:57.044Z,2.60
2023-03-26T08:25:29.611Z,2.97
2023-03-26T08:28:18.343Z,3.55
2023-03-26T08:30:46.976Z,2.95
2023-03-26T08:33:18.128Z,3.25
2023-03-26T08:35:48.129Z,2.25
2023-03-26T08:38:18.740Z,2.90
2023-03-26T08:40:56.617Z,2.70
2023-03-26T08:43:39.174Z,2.60
2023-03-26T08:46:22.204Z,2.65
2023-03-26T08:49:05.672Z,2.58
2023-03-26T08:51:57.492Z,6.22
2023-03-26T08:54:43.380Z,6.10
2023-03-26T08:57:23.392Z,8.75
2023-03-26T09:00:13.716Z,2.95
2023-03-26T09:03:09.014Z,3.92
2023-03-26T09:05:58.117Z,3.70
2023-03-26T09:08:54.183Z,3.50
2023-03-26T09:11:35.913Z,3.40
2023-03-26T09:14:18.516Z,4.55
2023-03-26T09:17:05.495Z,3.83
2023-03-26T09:19:56.805Z,3.95
2023-03-26T09:22:36.393Z,3.60
2023-03-26T09:25:14.491Z,4.68
2023-03-26T09:27:51.471Z,4.47
2023-03-26T09:30:30.734Z,3.10
2023-03-26T09:33:07.415Z,3.20
2023-03-26T09:35:45.117Z,4.10
2023-03-26T09:38:22.540Z,4.47
2023-03-26T09:40:55.059Z,3.30
2023-03-26T09:43:43.584Z,3.72
2023-03-26T09:46:19.185Z,3.58
2023-03-26T09:49:05.086Z,3.25
2023-03-26T09:51:51.382Z,3.55
2023-03-26T09:54:29.195Z,3.35
2023-03-26T09:57:03.462Z,3.35
2023-03-26T09:59:41.996Z,6.40
2023-03-26T10:02:46.067Z,3.63
2023-03-26T10:05:25.858Z,2.08
2023-03-26T10:08:02.430Z,3.00
2023-03-26T10:10:36.033Z,2.97
2023-03-26T10:13:14.991Z,2.33
2023-03-26T10:15:53.245Z,1.85
2023-03-26T10:18:27.188Z,1.90
2023-03-26T10:21:01.754Z,1.70
2023-03-26T10:23:38.718Z,1.70
2023-03-26T10:26:18.569Z,1.90
2023-03-26T10:28:56.812Z,1.58
2023-03-26T10:31:35.402Z,1.92
2023-03-26T10:34:29.168Z,1.67
2023-03-26T10:37:05.290Z,1.35
2023-03-26T10:39:49.478Z,1.50
2023-03-26T10:42:25.261Z,1.42
2023-03-26T10:45:10.937Z,2.83
2023-03-26T10:47:50.385Z,2.35
2023-03-26T10:50:30.750Z,1.95
2023-03-26T10:53:01.257Z,2.33
2023-03-26T10:55:32.848Z,1.30
2023-03-26T10:58:02.886Z,1.42
2023-03-26T11:00:34.471Z,1.20
2023-03-26T11:03:17.375Z,1.92
2023-03-26T11:05:51.054Z,1.80
2023-03-26T11:08:31.234Z,1.52
2023-03-26T11:11:04.055Z,0.85
2023-03-26T11:13:42.297Z,0.88
2023-03-26T11:18:44.461Z,0.80
2023-03-26T11:21:18.461Z,0.70
2023-03-26T11:24:04.932Z,1.42
2023-03-26T11:26:42.682Z,0.98
2023-03-26T11:29:31.663Z,1.27
2023-03-26T11:32:04.230Z,0.70
2023-03-26T11:34:34.944Z,0.88
2023-03-26T11:37:04.032Z,1.08
2023-03-26T11:39:35.033Z,0.95
2023-03-26T11:42:06.468Z,0.80
2023-03-26T11:44:44.160Z,1.10
2023-03-26T11:47:15.242Z,0.40
2023-03-26T11:49:56.426Z,0.90
2023-03-26T11:52:24.343Z,1.00
2023-03-26T11:54:52.926Z,1.25
2023-03-26T11:57:22.919Z,1.10
2023-03-26T11:59:57.561Z,0.90
2023-03-26T12:02:32.350Z,0.80
2023-03-26T12:05:16.159Z,0.90
2023-03-26T12:07:46.842Z,0.80
2023-03-26T12:10:28.753Z,1.15
2023-03-26T12:12:59.044Z,1.05
2023-03-26T12:15:27.519Z,1.02
2023-03-26T12:17:58.208Z,1.23
2023-03-26T12:20:38.811Z,1.02
2023-03-26T12:23:08.302Z,1.20
2023-03-26T12:25:37.395Z,1.27
2023-03-26T12:28:06.172Z,1.45
2023-03-26T12:30:35.376Z,1.30
2023-03-26T12:33:04.934Z,1.85
2023-03-26T12:35:34.755Z,1.63
2023-03-26T12:38:17.551Z,2.55
2023-03-26T12:40:46.916Z,1.48
2023-03-26T12:44:55.920Z,2.70
2023-03-26T12:47:58.584Z,2.60
2023-03-26T12:49:15.229Z,2.65
2023-03-26T12:51:49.175Z,1.55
2023-03-26T12:54:28.881Z,1.63
2023-03-26T12:57:12.561Z,1.60
2023-03-26T12:59:48.881Z,1.70
2023-03-26T13:02:29.467Z,1.95
2023-03-26T13:05:06.162Z,1.85
2023-03-26T13:07:41.647Z,1.20
2023-03-26T13:12:42.705Z,1.10
2023-03-26T13:15:16.566Z,1.30
2023-03-26T13:17:47.123Z,1.40
2023-03-26T13:20:18.979Z,1.25
2023-03-26T13:22:52.742Z,1.25
2023-03-26T13:25:27.042Z,1.30
2023-03-26T13:28:00.881Z,1.13
2023-03-26T13:30:32.688Z,1.33
2023-03-26T13:33:08.088Z,1.58
2023-03-26T13:35:39.327Z,1.20
2023-03-26T13:38:09.927Z,1.10
2023-03-26T13:40:42.269Z,0.70
2023-03-26T13:43:19.134Z,0.90
2023-03-26T13:45:59.152Z,1.45
2023-03-26T13:48:29.511Z,1.20
2023-03-26T13:51:00.544Z,0.90
2023-03-26T13:53:30.031Z,1.25
2023-03-26T13:56:01.015Z,1.88
2023-03-26T13:58:35.169Z,2.08
2023-03-26T14:01:05.336Z,2.50
2023-03-26T14:03:37.666Z,2.40
2023-03-26T14:06:08.000Z,2.08
2023-03-26T14:08:38.954Z,2.33
2023-03-26T14:11:10.932Z,1.90
2023-03-26T14:13:42.940Z,1.40
2023-03-26T14:16:13.535Z,1.50
2023-03-26T14:18:45.418Z,1.45
2023-03-26T14:21:33.438Z,1.30
2023-03-26T14:24:19.001Z,2.45
2023-03-26T14:27:03.355Z,2.25
2023-03-26T14:29:39.005Z,1.60
2023-03-26T14:32:24.470Z,1.58
2023-03-26T14:34:59.096Z,1.98
2023-03-26T14:37:46.763Z,1.40
2023-03-26T14:40:27.039Z,1.88
2023-03-26T14:43:02.518Z,1.63
2023-03-26T14:45:46.485Z,1.30
2023-03-26T14:48:36.557Z,1.40
2023-03-26T14:51:12.401Z,1.30
2023-03-26T14:53:43.065Z,1.30
2023-03-26T14:56:27.477Z,1.40
2023-03-26T14:59:11.000Z,1.27
2023-03-26T15:01:50.621Z,1.02
2023-03-26T15:04:33.246Z,1.13
2023-03-26T15:07:18.115Z,1.35
2023-03-26T15:10:10.252Z,0.93
2023-03-26T15:12:45.511Z,1.20
2023-03-26T15:15:31.186Z,1.10
2023-03-26T15:18:12.391Z,1.45
2023-03-26T15:21:10.387Z,1.35
2023-03-26T15:24:03.269Z,1.15
2023-03-26T15:26:48.741Z,1.08
2023-03-26T15:29:30.716Z,1.92
2023-03-26T15:32:04.302Z,1.23
2023-03-26T15:34:48.742Z,0.90
2023-03-26T15:37:29.162Z,0.70
2023-03-26T15:40:23.723Z,0.75
2023-03-26T15:42:56.140Z,0.70
2023-03-26T15:45:32.786Z,1.20
2023-03-26T15:48:09.553Z,1.15
2023-03-26T15:50:44.861Z,1.23
2023-03-26T15:53:23.490Z,1.05
2023-03-26T15:56:00.480Z,1.05
2023-03-26T15:58:31.170Z,1.17
2023-03-26T16:01:07.965Z,0.80
2023-03-26T16:03:41.375Z,0.90
2023-03-26T16:06:20.064Z,1.40
2023-03-26T16:08:55.925Z,1.40
2023-03-26T16:11:44.729Z,1.42
2023-03-26T16:14:17.693Z,2.35
2023-03-26T16:16:54.104Z,1.67
2023-03-26T16:19:49.474Z,1.25
2023-03-26T16:25:27.494Z,1.30
2023-03-26T16:28:14.539Z,1.10
2023-03-26T16:30:46.093Z,1.63
2023-03-26T16:33:15.912Z,1.55
2023-03-26T16:36:01.945Z,2.10
2023-03-26T16:38:50.178Z,1.92
2023-03-26T16:41:22.675Z,1.30
2023-03-26T16:44:05.397Z,1.65
2023-03-26T16:46:42.410Z,1.40
2023-03-26T16:49:16.377Z,1.20
2023-03-26T16:51:54.578Z,1.00
2023-03-26T16:54:25.638Z,1.15
2023-03-26T16:57:00.241Z,1.52
2023-03-26T17:02:01.858Z,1.10
2023-03-26T17:04:31.474Z,1.10
2023-03-26T17:07:04.284Z,1.08
2023-03-26T17:09:40.180Z,0.88
2023-03-26T17:12:21.131Z,0.90
2023-03-26T17:15:01.467Z,0.80
2023-03-26T17:17:40.677Z,0.65
2023-03-26T17:20:16.303Z,0.50
2023-03-26T17:22:46.184Z,0.95
2023-03-26T17:25:33.650Z,0.60
2023-03-26T17:28:21.558Z,0.90
2023-03-26T17:30:55.780Z,0.80
2023-03-26T17:33:28.299Z,0.70
2023-03-26T17:36:10.916Z,0.70
2023-03-26T17:39:01.045Z,0.60
2023-03-26T17:41:47.698Z,0.68
2023-03-26T17:44:34.546Z,0.88
2023-03-26T17:47:05.577Z,0.75
2023-03-26T17:49:36.526Z,0.90
2023-03-26T17:52:06.260Z,0.95
2023-03-26T17:54:34.928Z,1.08
2023-03-26T17:57:05.829Z,0.70
2023-03-26T17:59:33.861Z,0.88
2023-03-26T18:02:05.443Z,0.40
2023-03-26T18:04:34.914Z,0.70
2023-03-26T18:07:13.602Z,0.60
2023-03-26T18:09:48.965Z,0.60
2023-03-26T18:12:24.934Z,0.60
2023-03-26T18:14:59.079Z,0.70
2023-03-26T18:17:32.541Z,0.85
2023-03-26T18:20:06.678Z,0.90
2023-03-26T18:22:35.073Z,0.65
2023-03-26T18:25:03.546Z,0.80
2023-03-26T18:27:36.097Z,0.88
2023-03-26T18:30:13.870Z,0.85
2023-03-26T18:32:50.969Z,0.95
2023-03-26T18:35:20.334Z,1.02
2023-03-26T18:37:49.300Z,0.80
2023-03-26T18:40:19.291Z,0.95
2023-03-26T18:42:48.647Z,0.88
2023-03-26T18:45:21.432Z,0.88
2023-03-26T18:47:51.724Z,1.10
2023-03-26T18:50:23.469Z,1.05
2023-03-26T18:52:51.365Z,1.00
2023-03-26T18:55:19.390Z,0.73
2023-03-26T18:57:51.146Z,0.80
2023-03-26T19:00:20.708Z,1.27
2023-03-26T19:02:51.879Z,0.90
2023-03-26T19:05:20.186Z,0.70
2023-03-26T19:07:48.235Z,0.90
2023-03-26T19:10:18.658Z,1.30
2023-03-26T19:12:47.332Z,1.33
2023-03-26T19:15:16.587Z,2.63
2023-03-26T19:17:45.876Z,1.75
2023-03-26T19:20:17.790Z,2.90
2023-03-26T19:22:51.034Z,1.40
2023-03-26T19:25:21.667Z,1.25
2023-03-26T19:27:50.527Z,0.80
2023-03-26T19:30:28.429Z,1.00
2023-03-26T19:33:14.282Z,0.70
2023-03-26T19:36:04.800Z,0.73
2023-03-26T19:38:38.798Z,0.93
2023-03-26T19:41:08.056Z,0.60
2023-03-26T19:43:44.425Z,0.77
2023-03-26T19:46:31.194Z,0.88
2023-03-26T19:48:59.248Z,0.77
2023-03-26T19:51:34.595Z,0.70
2023-03-26T19:54:04.117Z,0.70
2023-03-26T19:56:33.864Z,0.98
2023-03-26T19:59:02.381Z,2.00
2023-03-26T20:01:31.854Z,2.92
2023-03-26T20:04:01.604Z,2.10
2023-03-26T20:06:42.330Z,1.15
2023-03-26T20:09:12.851Z,0.90
2023-03-26T20:11:41.270Z,1.00
2023-03-26T20:14:13.955Z,0.90
2023-03-26T20:16:43.071Z,1.00
2023-03-26T20:19:14.219Z,1.10
2023-03-26T20:21:42.396Z,0.88
2023-03-26T20:24:14.723Z,1.00
2023-03-26T20:26:42.635Z,1.15
2023-03-26T20:29:11.758Z,0.55
2023-03-26T20:31:41.464Z,0.65
2023-03-26T20:34:15.530Z,0.80
2023-03-26T20:36:44.450Z,0.60
2023-03-26T20:39:14.174Z,0.80
2023-03-26T20:41:44.921Z,1.20
2023-03-26T20:44:13.763Z,0.57
2023-03-26T20:46:42.273Z,0.60
2023-03-26T20:49:11.518Z,0.70
2023-03-26T20:51:42.066Z,0.70
2023-03-26T20:54:13.440Z,0.70
2023-03-26T20:56:42.588Z,0.80
2023-03-26T20:59:11.649Z,0.75
2023-03-26T21:01:39.679Z,0.98
2023-03-26T21:04:07.596Z,0.88
2023-03-26T21:06:35.249Z,0.80
2023-03-26T21:09:04.082Z,0.80
2023-03-26T21:11:40.919Z,1.00
2023-03-26T21:14:15.174Z,1.10
2023-03-26T21:16:43.273Z,0.70
2023-03-26T21:19:11.296Z,0.82
2023-03-26T21:21:42.852Z,0.80
2023-03-26T21:24:14.295Z,0.77
2023-03-26T21:26:48.088Z,1.00
2023-03-26T21:29:18.684Z,0.80
2023-03-26T21:31:46.881Z,1.77
2023-03-26T21:34:15.526Z,1.88
2023-03-26T21:36:45.339Z,2.50
2023-03-26T21:39:13.286Z,1.35
2023-03-26T21:41:44.146Z,1.80
2023-03-26T21:44:14.194Z,1.20
2023-03-26T21:46:44.186Z,0.93
2023-03-26T21:49:12.887Z,1.23
2023-03-26T21:51:41.424Z,1.42
2023-03-26T21:54:22.399Z,1.30
2023-03-26T21:56:54.403Z,1.08
2023-03-26T21:59:26.053Z,1.23
2023-03-26T22:02:00.094Z,0.85
2023-03-26T22:04:32.953Z,1.10
2023-03-26T22:07:03.569Z,0.88
2023-03-26T22:09:36.289Z,0.77
2023-03-26T22:12:04.816Z,0.52
2023-03-26T22:14:33.622Z,1.20
2023-03-26T22:17:02.792Z,1.15
2023-03-26T22:19:30.669Z,0.90
2023-03-26T22:22:00.162Z,0.98
2023-03-26T22:24:28.148Z,0.85
2023-03-26T22:26:56.042Z,0.90
2023-03-26T22:29:23.910Z,0.85
2023-03-26T22:31:52.365Z,1.23
2023-03-26T22:34:23.311Z,1.25
2023-03-26T22:36:52.484Z,0.90
2023-03-26T22:39:20.357Z,1.00
2023-03-26T22:41:48.035Z,1.30
2023-03-26T22:44:20.111Z,1.10
2023-03-26T22:46:49.552Z,1.60
2023-03-26T22:49:17.468Z,1.10
2023-03-26T22:51:46.739Z,1.38
2023-03-26T22:54:14.539Z,1.30
2023-03-26T22:56:43.584Z,1.60
2023-03-26T22:59:11.589Z,1.40
2023-03-26T23:01:39.388Z,1.30
2023-03-26T23:04:07.196Z,1.42
2023-03-26T23:06:35.201Z,1.02
2023-03-26T23:09:07.061Z,0.98
2023-03-26T23:11:34.895Z,1.00
2023-03-26T23:14:02.717Z,0.98
2023-03-26T23:16:31.764Z,0.80
2023-03-26T23:18:59.646Z,0.90
2023-03-26T23:21:27.420Z,0.95
2023-03-26T23:23:55.112Z,1.08
2023-03-26T23:26:24.181Z,0.93
2023-03-26T23:28:52.152Z,1.00
2023-03-26T23:31:19.952Z,1.10
2023-03-26T23:33:47.895Z,1.00
2023-03-26T23:36:18.710Z,1.13
2023-03-26T23:38:47.683Z,1.15
2023-03-26T23:41:15.855Z,1.30
2023-03-26T23:43:54.789Z,3.15
2023-03-26T23:46:23.863Z,2.63
2023-03-26T23:48:52.144Z,1.13
2023-03-26T23:51:21.009Z,1.35
2023-03-26T23:53:49.210Z,1.75
2023-03-26T23:56:17.227Z,1.27
2023-03-26T23:58:46.328Z,0.80
